Time;durP1;ratioP1;P1;durP2;ratioP2;P2;SDS_P1;SDS_P2;PMS_P1;PMS_P2;Temp;Humidity;BMP_temperature;BMP_pressure;BME280_temperature;BME280_humidity;BME280_pressure;Samples;Min_cycle;Max_cycle;Signal;HPM_P1;HPM_P2
2022/06/27 00:01:47;;;;;;;7.83;7.07;;;16.60;99.90;;;;;;5040457;28;20931;-64
2022/06/27 00:04:15;;;;;;;6.60;6.07;;;16.60;99.90;;;;;;5040434;28;20604;-64
2022/06/27 00:06:47;;;;;;;6.70;6.00;;;16.60;99.90;;;;;;5040422;28;20968;-64
2022/06/27 00:09:15;;;;;;;6.10;5.60;;;16.60;99.90;;;;;;5039726;28;20458;-64
2022/06/27 00:11:48;;;;;;;7.30;6.57;;;16.60;1.00;;;;;;5040298;28;20471;-64
2022/06/27 00:14:15;;;;;;;6.70;6.10;;;16.70;99.90;;;;;;5040577;28;20441;-64
2022/06/27 00:16:43;;;;;;;9.67;6.73;;;16.60;99.90;;;;;;5040357;28;20537;-64
2022/06/27 00:19:13;;;;;;;7.83;6.53;;;16.60;99.90;;;;;;5039586;28;20491;-64
2022/06/27 00:21:48;;;;;;;7.50;6.40;;;16.60;1.00;;;;;;5040146;28;20467;-64
2022/06/27 00:24:18;;;;;;;8.20;6.47;;;16.60;99.90;;;;;;5040222;28;20536;-65
2022/06/27 00:26:49;;;;;;;7.23;6.57;;;16.60;99.90;;;;;;5040313;28;20585;-65
2022/06/27 00:29:17;;;;;;;6.87;6.33;;;16.60;99.90;;;;;;5039630;28;20446;-65
2022/06/27 00:31:47;;;;;;;8.70;5.53;;;16.50;99.90;;;;;;5040055;28;20561;-65
2022/06/27 00:34:14;;;;;;;6.60;6.00;;;16.50;99.90;;;;;;5039870;28;20438;-65
2022/06/27 00:36:41;;;;;;;6.80;6.20;;;16.50;99.90;;;;;;5039848;28;20463;-65
2022/06/27 00:39:13;;;;;;;7.10;6.40;;;16.50;1.00;;;;;;5039672;28;20509;-66
2022/06/27 00:41:43;;;;;;;7.73;6.80;;;16.40;99.90;;;;;;5039985;28;20505;-66
2022/06/27 00:44:14;;;;;;;7.90;7.20;;;16.40;99.90;;;;;;5039788;28;20558;-66
2022/06/27 00:46:41;;;;;;;7.33;6.60;;;16.40;1.00;;;;;;5039502;28;20529;-66
2022/06/27 00:49:08;;;;;;;7.33;6.63;;;16.40;1.00;;;;;;5039123;28;20474;-66
2022/06/27 00:51:41;;;;;;;12.03;6.53;;;16.50;70.20;;;;;;5039587;28;20562;-66
2022/06/27 00:54:11;;;;;;;7.93;7.23;;;16.50;1.00;;;;;;5039731;28;20557;-66
2022/06/27 00:56:38;;;;;;;9.27;8.47;;;16.40;99.90;;;;;;5039881;28;20513;-66
2022/06/27 00:59:05;;;;;;;9.37;7.37;;;16.40;99.90;;;;;;5039231;28;20538;-66
2022/06/27 01:01:33;;;;;;;8.17;7.37;;;16.40;1.00;;;;;;5039210;28;20474;-66
2022/06/27 01:04:01;;;;;;;9.33;8.53;;;16.40;1.00;;;;;;5039021;28;20557;-67
2022/06/27 01:06:28;;;;;;;10.67;9.13;;;16.50;56.50;;;;;;5039241;28;20470;-67
2022/06/27 01:09:08;;;;;;;9.60;8.60;;;16.50;1.00;;;;;;5039652;28;20463;-68
2022/06/27 01:11:36;;;;;;;9.50;8.13;;;16.50;99.90;;;;;;5039400;28;20954;-67
2022/06/27 01:14:03;;;;;;;9.33;8.63;;;16.60;1.00;;;;;;5038994;28;20561;-68
2022/06/27 01:16:31;;;;;;;9.60;8.60;;;16.60;92.60;;;;;;5039261;28;20905;-67
2022/06/27 01:19:01;;;;;;;7.50;6.90;;;16.60;1.00;;;;;;5038653;28;20577;-68
2022/06/27 01:21:33;;;;;;;8.57;7.87;;;16.60;1.00;;;;;;5039159;28;20938;-68
2022/06/27 01:24:02;;;;;;;9.03;8.13;;;16.60;99.90;;;;;;5039135;28;20532;-68
2022/06/27 01:26:30;;;;;;;9.53;8.07;;;16.60;1.00;;;;;;5038974;28;21019;-68
2022/06/27 01:28:57;;;;;;;10.73;9.93;;;16.60;1.00;;;;;;5038975;28;20764;-68
2022/06/27 01:31:27;;;;;;;11.57;10.53;;;16.60;99.90;;;;;;5038291;28;20532;-68
2022/06/27 01:33:57;;;;;;;11.10;10.10;;;16.60;1.00;;;;;;5038444;28;20469;-67
2022/06/27 01:36:43;;;;;;;11.13;10.23;;;16.60;1.00;;;;;;5038728;28;20561;-68
2022/06/27 01:39:13;;;;;;;12.70;11.70;;;16.60;1.00;;;;;;5038598;28;20467;-67
2022/06/27 01:45:02;;;;;;;13.40;11.70;;;16.40;99.90;;;;;;5037898;28;20406;-67
2022/06/27 01:47:30;;;;;;;12.50;11.40;;;16.50;1.00;;;;;;5038414;28;20589;-67
2022/06/27 01:50:00;;;;;;;13.83;12.53;;;16.50;99.90;;;;;;5038363;28;20463;-67
2022/06/27 01:52:32;;;;;;;13.20;11.90;;;16.50;99.90;;;;;;5038488;28;20537;-67
2022/06/27 01:55:01;;;;;;;12.40;11.30;;;16.60;99.90;;;;;;5037945;28;20434;-67
2022/06/27 01:57:29;;;;;;;14.20;12.90;;;16.60;1.00;;;;;;5038353;28;20553;-67
2022/06/27 01:59:59;;;;;;;10.67;9.77;;;16.70;1.00;;;;;;5038285;28;20772;-67
2022/06/27 02:02:26;;;;;;;9.90;9.10;;;16.70;1.00;;;;;;5037886;28;20558;-67
2022/06/27 02:04:54;;;;;;;9.77;8.90;;;16.70;99.90;;;;;;5038281;28;20463;-67
2022/06/27 02:07:21;;;;;;;10.47;9.63;;;16.70;99.90;;;;;;5037997;28;20498;-66
2022/06/27 02:09:49;;;;;;;11.47;10.40;;;16.70;99.90;;;;;;5038093;28;20835;-67
2022/06/27 02:12:22;;;;;;;11.10;10.20;;;16.60;1.00;;;;;;5038411;28;20497;-67
2022/06/27 02:14:51;;;;;;;11.57;10.67;;;16.60;26.50;;;;;;5038399;28;20444;-66
2022/06/27 02:17:23;;;;;;;13.30;11.90;;;16.60;99.90;;;;;;5037455;28;20561;-67
2022/06/27 02:19:51;;;;;;;12.10;10.90;;;16.60;99.90;;;;;;5037641;28;20518;-67
2022/06/27 02:22:18;;;;;;;13.13;12.03;;;16.60;99.90;;;;;;5037952;28;20851;-66
2022/06/27 02:24:48;;;;;;;13.00;11.87;;;16.60;71.40;;;;;;5037845;28;20467;-66
2022/06/27 02:27:22;;;;;;;12.40;11.20;;;16.60;99.90;;;;;;5037571;28;20496;-66
2022/06/27 02:29:52;;;;;;;12.23;11.03;;;16.60;99.90;;;;;;5037914;28;20498;-66
2022/06/27 02:32:19;;;;;;;11.07;10.17;;;16.60;1.00;;;;;;5037842;28;20796;-66
2022/06/27 02:34:49;;;;;;;13.37;12.17;;;16.60;99.90;;;;;;5037763;28;20469;-66
2022/06/27 02:37:18;;;;;;;15.27;13.73;;;16.60;99.90;;;;;;5037464;28;20551;-66
2022/06/27 02:39:47;;;;;;;14.50;13.10;;;16.60;1.00;;;;;;5037632;28;20467;-66
2022/06/27 02:42:16;;;;;;;13.07;11.97;;;16.50;1.00;;;;;;5037502;28;20449;-66
2022/06/27 02:44:49;;;;;;;15.17;13.90;;;16.50;1.00;;;;;;5037610;28;20560;-66
2022/06/27 02:47:20;;;;;;;18.70;16.90;;;16.50;1.00;;;;;;5037342;28;20503;-66
2022/06/27 02:49:52;;;;;;;16.07;14.77;;;16.40;99.90;;;;;;5037575;28;20467;-66
2022/06/27 02:52:25;;;;;;;15.00;13.80;;;16.50;1.00;;;;;;5037549;28;20519;-66
2022/06/27 02:55:00;;;;;;;16.23;14.63;;;16.50;99.90;;;;;;5037539;28;20536;-66
2022/06/27 02:57:34;;;;;;;15.07;13.60;;;16.50;1.00;;;;;;5037291;28;20462;-67
2022/06/27 03:00:08;;;;;;;19.00;17.37;;;16.60;1.00;;;;;;5036774;28;20561;-67
2022/06/27 03:02:40;;;;;;;16.50;14.90;;;16.50;1.00;;;;;;5037329;28;20498;-67
2022/06/27 03:05:08;;;;;;;17.57;16.13;;;16.50;99.90;;;;;;5036806;28;20463;-67
2022/06/27 03:07:38;;;;;;;17.00;15.60;;;16.50;99.90;;;;;;5037011;28;20829;-67
2022/06/27 03:10:06;;;;;;;16.03;14.63;;;16.50;99.90;;;;;;5037329;28;20466;-66
2022/06/27 03:12:33;;;;;;;16.83;15.33;;;16.50;1.00;;;;;;5037241;28;20503;-66
2022/06/27 03:15:04;;;;;;;17.50;16.10;;;16.50;1.00;;;;;;5036869;28;20480;-66
2022/06/27 03:17:34;;;;;;;16.70;15.40;;;16.50;99.90;;;;;;5036805;28;20460;-67
2022/06/27 03:20:02;;;;;;;17.23;15.93;;;16.50;66.20;;;;;;5037589;28;20542;-66
2022/06/27 03:22:32;;;;;;;17.57;16.17;;;16.60;99.90;;;;;;5037129;28;20463;-66
2022/06/27 03:24:59;;;;;;;18.60;17.00;;;16.60;63.50;;;;;;5036524;28;20536;-66
2022/06/27 03:27:26;;;;;;;18.60;17.07;;;16.60;99.90;;;;;;5036855;28;20498;-66
2022/06/27 03:29:54;;;;;;;17.77;15.93;;;16.60;1.00;;;;;;5041080;28;20477;-66
2022/06/27 03:32:23;;;;;;;16.50;15.10;;;16.50;1.00;;;;;;5041148;28;20950;-66
2022/06/27 03:34:53;;;;;;;16.47;15.07;;;16.60;4.30;;;;;;5041112;28;20462;-66
2022/06/27 03:37:24;;;;;;;16.53;15.03;;;16.60;1.00;;;;;;5040766;28;20434;-66
2022/06/27 03:39:51;;;;;;;16.50;15.10;;;16.60;99.90;;;;;;5041175;28;20466;-66
2022/06/27 03:42:21;;;;;;;16.13;14.57;;;16.60;1.00;;;;;;5040924;28;20445;-66
2022/06/27 03:44:49;;;;;;;15.17;13.97;;;16.60;1.00;;;;;;5040901;28;20562;-66
2022/06/27 03:47:16;;;;;;;15.23;13.93;;;16.60;99.90;;;;;;5040333;28;20465;-66
2022/06/27 03:50:02;;;;;;;13.40;12.30;;;16.50;99.90;;;;;;5040831;28;20561;-66
2022/06/27 03:52:29;;;;;;;15.23;13.93;;;16.50;99.90;;;;;;5040785;28;20459;-66
2022/06/27 03:55:04;;;;;;;14.63;13.43;;;16.50;99.90;;;;;;5040815;28;20886;-66
2022/06/27 03:57:31;;;;;;;14.00;12.80;;;16.50;1.00;;;;;;5040533;28;20481;-66
2022/06/27 03:59:59;;;;;;;16.50;15.00;;;16.60;99.90;;;;;;5040457;28;20549;-66
2022/06/27 04:02:27;;;;;;;14.60;13.30;;;16.60;99.90;;;;;;5040861;28;20487;-66
2022/06/27 04:04:56;;;;;;;15.10;13.60;;;16.50;83.40;;;;;;5040049;28;20529;-66
2022/06/27 04:07:26;;;;;;;14.30;13.10;;;16.50;99.90;;;;;;5040463;28;20559;-62
2022/06/27 04:09:53;;;;;;;15.53;14.03;;;16.40;1.00;;;;;;5044001;28;20574;-61
2022/06/27 04:12:21;;;;;;;15.37;13.93;;;16.40;1.00;;;;;;5060015;28;20486;-57
2022/06/27 04:14:49;;;;;;;16.43;15.03;;;16.40;1.00;;;;;;5058664;28;20819;-59
2022/06/27 04:17:17;;;;;;;15.00;13.70;;;16.50;99.90;;;;;;5059493;28;20461;-59
2022/06/27 04:19:45;;;;;;;16.77;15.23;;;16.50;1.00;;;;;;5059317;28;20496;-59
2022/06/27 04:22:16;;;;;;;15.53;13.97;;;16.60;18.80;;;;;;5059234;28;20770;-58
2022/06/27 04:24:43;;;;;;;16.20;14.67;;;16.60;30.80;;;;;;5058574;28;20459;-59
2022/06/27 04:27:11;;;;;;;15.43;14.03;;;16.60;99.90;;;;;;5065049;28;20602;-58
2022/06/27 04:29:38;;;;;;;16.17;14.57;;;16.60;99.90;;;;;;5062461;28;20440;-59
2022/06/27 04:32:07;;;;;;;17.53;16.03;;;16.60;99.90;;;;;;5059382;28;20887;-59
2022/06/27 04:34:39;;;;;;;16.07;14.33;;;16.50;99.90;;;;;;5059241;28;20447;-59
2022/06/27 04:37:07;;;;;;;16.50;15.10;;;16.50;99.90;;;;;;5057924;28;20770;-59
2022/06/27 04:39:36;;;;;;;15.67;14.07;;;16.40;99.90;;;;;;5058300;28;20881;-59
2022/06/27 04:42:04;;;;;;;15.17;13.87;;;16.40;99.90;;;;;;5059940;28;20490;-59
2022/06/27 04:44:33;;;;;;;15.87;14.47;;;16.40;99.90;;;;;;5059112;28;20540;-59
2022/06/27 04:47:04;;;;;;;15.63;14.10;;;16.50;99.90;;;;;;5065619;28;20464;-59
2022/06/27 04:49:31;;;;;;;16.63;15.03;;;16.50;99.90;;;;;;5068652;28;20457;-59
2022/06/27 04:51:59;;;;;;;17.77;16.13;;;16.50;99.90;;;;;;5058192;28;20777;-58
2022/06/27 04:54:28;;;;;;;16.90;15.27;;;16.50;99.90;;;;;;5058392;28;20549;-57
2022/06/27 04:56:57;;;;;;;18.50;16.73;;;16.50;99.90;;;;;;5059217;28;20435;-56
2022/06/27 04:59:28;;;;;;;17.50;15.80;;;16.50;99.90;;;;;;5055288;28;20508;-58
2022/06/27 05:01:56;;;;;;;17.83;16.00;;;16.50;99.90;;;;;;5056203;28;20561;-59
2022/06/27 05:04:24;;;;;;;17.30;15.60;;;16.50;99.90;;;;;;5058214;28;20520;-58
2022/06/27 05:06:51;;;;;;;16.30;14.80;;;16.50;99.90;;;;;;5057719;28;20433;-59
2022/06/27 05:09:19;;;;;;;16.03;14.50;;;16.40;99.90;;;;;;5058395;28;20468;-58
2022/06/27 05:11:46;;;;;;;15.50;14.00;;;16.30;99.90;;;;;;5057633;28;20553;-58
2022/06/27 05:14:15;;;;;;;13.87;12.67;;;16.40;99.90;;;;;;5059031;28;20462;-61
2022/06/27 05:16:44;;;;;;;14.40;13.00;;;16.30;99.90;;;;;;5058111;28;20595;-61
2022/06/27 05:19:14;;;;;;;13.30;12.00;;;16.40;99.90;;;;;;5058325;28;20833;-62
2022/06/27 05:21:42;;;;;;;13.97;12.77;;;16.40;99.90;;;;;;5057653;28;20907;-61
2022/06/27 05:24:10;;;;;;;13.97;12.67;;;16.50;99.90;;;;;;5058641;28;20468;-62
2022/06/27 05:26:38;;;;;;;14.97;13.67;;;16.70;99.90;;;;;;5057724;28;20752;-62
2022/06/27 05:29:05;;;;;;;13.83;12.43;;;16.80;99.90;;;;;;5056764;28;20857;-62
2022/06/27 05:31:34;;;;;;;13.97;12.60;;;17.00;99.90;;;;;;5056211;28;20780;-62
2022/06/27 05:34:01;;;;;;;15.30;13.90;;;17.20;99.90;;;;;;5057443;28;20462;-62
2022/06/27 05:36:32;;;;;;;13.70;12.30;;;17.40;99.90;;;;;;5058391;28;20473;-62
2022/06/27 05:38:59;;;;;;;13.37;12.17;;;17.60;1.00;;;;;;5058173;28;20489;-62
2022/06/27 05:41:27;;;;;;;14.23;12.30;;;17.80;1.00;;;;;;5057446;28;20470;-62
2022/06/27 05:43:54;;;;;;;14.70;13.30;;;18.10;99.90;;;;;;5058284;28;20454;-61
2022/06/27 05:46:23;;;;;;;15.03;13.60;;;18.50;1.00;;;;;;5057496;28;20561;-62
2022/06/27 05:48:52;;;;;;;13.20;11.80;;;18.70;99.90;;;;;;5057483;28;20954;-62
2022/06/27 05:51:22;;;;;;;13.67;12.37;;;18.80;1.00;;;;;;5057325;28;20473;-62
2022/06/27 05:53:50;;;;;;;14.50;13.17;;;18.70;99.90;;;;;;5057076;28;20501;-62
2022/06/27 05:56:18;;;;;;;16.43;14.97;;;18.10;99.90;;;;;;5058528;28;20491;-61
2022/06/27 05:58:46;;;;;;;15.43;14.13;;;17.90;1.00;;;;;;5057285;28;20458;-62
2022/06/27 06:01:19;;;;;;;15.80;14.50;;;18.00;13.40;;;;;;5050704;28;20721;-62
2022/06/27 06:03:51;;;;;;;14.50;13.07;;;17.70;1.00;;;;;;5048330;28;20879;-62
2022/06/27 06:06:18;;;;;;;14.83;13.37;;;17.80;99.90;;;;;;5053991;28;20437;-62
2022/06/27 06:08:45;;;;;;;17.10;15.40;;;17.90;99.90;;;;;;5057209;28;20581;-62
2022/06/27 06:11:16;;;;;;;16.70;15.20;;;17.90;99.90;;;;;;5057419;28;20550;-61
2022/06/27 06:13:45;;;;;;;17.80;16.10;;;17.90;99.90;;;;;;5055670;28;20448;-61
2022/06/27 06:16:16;;;;;;;17.57;15.97;;;17.70;99.90;;;;;;5038952;28;20486;-62
2022/06/27 06:18:44;;;;;;;19.57;17.73;;;17.60;1.00;;;;;;5046980;28;20486;-61
2022/06/27 06:21:13;;;;;;;20.07;18.37;;;17.50;12.70;;;;;;5055580;28;20814;-62
2022/06/27 06:23:43;;;;;;;19.77;17.87;;;17.50;99.90;;;;;;5054658;28;20746;-61
2022/06/27 06:26:16;;;;;;;20.17;18.20;;;17.50;99.90;;;;;;5055706;28;20549;-61
2022/06/27 06:28:44;;;;;;;19.53;17.77;;;17.70;98.20;;;;;;5057071;28;20933;-61
2022/06/27 06:31:15;;;;;;;18.70;17.10;;;18.00;99.90;;;;;;5056302;28;20455;-61
2022/06/27 06:33:43;;;;;;;20.07;18.37;;;18.30;99.90;;;;;;5057070;28;20462;-61
2022/06/27 06:36:12;;;;;;;20.23;18.43;;;18.50;99.90;;;;;;5059714;28;20457;-61
2022/06/27 06:38:42;;;;;;;21.10;19.20;;;18.60;99.90;;;;;;5060669;28;20969;-61
2022/06/27 06:41:13;;;;;;;20.47;18.57;;;18.60;1.00;;;;;;5069252;28;20437;-62
2022/06/27 06:43:40;;;;;;;20.43;18.67;;;18.10;99.90;;;;;;5055684;28;20924;-62
2022/06/27 06:46:09;;;;;;;20.60;18.80;;;18.10;1.00;;;;;;5056514;28;20441;-61
2022/06/27 06:48:37;;;;;;;22.83;20.87;;;18.10;1.00;;;;;;5040744;28;20494;-62
2022/06/27 06:51:08;;;;;;;22.63;20.63;;;18.00;99.90;;;;;;5036250;28;20506;-62
2022/06/27 06:53:39;;;;;;;21.17;19.37;;;17.80;1.00;;;;;;5043435;28;20748;-62
2022/06/27 06:56:08;;;;;;;22.13;20.33;;;17.90;10.30;;;;;;5055470;28;20565;-62
2022/06/27 06:58:39;;;;;;;22.70;20.70;;;18.00;91.00;;;;;;5048545;28;20467;-63
2022/06/27 07:01:06;;;;;;;22.80;20.80;;;18.10;34.60;;;;;;5061779;28;20458;-63
2022/06/27 07:03:34;;;;;;;23.23;21.30;;;18.20;1.00;;;;;;5062742;28;20569;-63
2022/06/27 07:06:02;;;;;;;21.53;19.63;;;18.10;1.00;;;;;;5063109;28;20454;-63
2022/06/27 07:08:33;;;;;;;23.17;21.07;;;18.30;25.60;;;;;;5060009;28;20490;-63
2022/06/27 07:11:03;;;;;;;23.57;21.33;;;18.40;1.00;;;;;;5055954;28;20505;-63
2022/06/27 07:13:33;;;;;;;23.30;21.37;;;18.50;1.00;;;;;;5056372;28;20448;-64
2022/06/27 07:16:00;;;;;;;20.57;18.67;;;18.40;99.90;;;;;;5056563;28;20528;-64
2022/06/27 07:18:28;;;;;;;20.70;18.90;;;18.20;99.90;;;;;;5055898;28;20497;-64
2022/06/27 07:20:59;;;;;;;22.77;20.77;;;17.80;99.90;;;;;;5056249;28;20465;-65
2022/06/27 07:23:26;;;;;;;22.80;20.80;;;17.70;1.00;;;;;;5056964;28;20462;-64
2022/06/27 07:25:54;;;;;;;22.83;20.93;;;17.70;1.00;;;;;;5054025;28;20561;-65
2022/06/27 07:28:28;;;;;;;24.40;22.10;;;17.80;99.90;;;;;;5055809;28;20529;-64
2022/06/27 07:30:58;;;;;;;24.23;21.90;;;17.90;26.30;;;;;;5056842;28;20462;-65
2022/06/27 07:33:26;;;;;;;24.67;22.47;;;17.90;1.00;;;;;;5056212;28;20458;-65
2022/06/27 07:35:53;;;;;;;25.10;22.90;;;17.90;52.90;;;;;;5056614;28;20441;-65
2022/06/27 07:38:22;;;;;;;26.17;23.70;;;17.80;99.90;;;;;;5057158;28;20565;-65
2022/06/27 07:40:49;;;;;;;28.03;25.53;;;17.80;99.90;;;;;;5056794;28;20466;-65
2022/06/27 07:43:17;;;;;;;27.53;25.03;;;17.90;99.90;;;;;;5043552;28;20474;-65
2022/06/27 07:45:47;;;;;;;28.90;26.23;;;17.90;31.90;;;;;;5055385;28;20466;-65
2022/06/27 07:48:17;;;;;;;26.57;24.27;;;17.90;22.10;;;;;;5056001;28;20499;-65
2022/06/27 07:50:44;;;;;;;29.50;26.70;;;17.90;99.90;;;;;;5055948;28;20559;-65
2022/06/27 07:53:16;;;;;;;30.30;27.40;;;17.70;1.00;;;;;;5055935;28;20462;-65
2022/06/27 07:55:47;;;;;;;30.33;27.50;;;17.60;99.90;;;;;;5055671;28;20466;-64
2022/06/27 07:58:16;;;;;;;29.37;26.47;;;17.70;99.90;;;;;;5056114;28;20425;-66
2022/06/27 08:00:47;;;;;;;32.83;29.67;;;17.60;99.90;;;;;;5036820;28;20459;-65
2022/06/27 08:06:02;;;;;;;28.27;25.87;;;17.90;99.90;;;;;;5055784;28;20532;-64
2022/06/27 08:08:32;;;;;;;27.23;24.53;;;18.00;99.90;;;;;;5054888;28;20486;-64
2022/06/27 08:10:59;;;;;;;27.43;24.90;;;18.00;1.00;;;;;;5055451;28;20577;-64
2022/06/27 08:13:31;;;;;;;29.27;26.37;;;18.00;1.00;;;;;;5054309;28;20600;-64
2022/06/27 08:16:00;;;;;;;26.97;24.47;;;18.40;1.00;;;;;;5057247;28;20444;-64
2022/06/27 08:18:31;;;;;;;25.47;23.07;;;18.60;99.90;;;;;;5060323;28;20512;-63
2022/06/27 08:20:58;;;;;;;24.93;22.73;;;19.00;99.90;;;;;;5060569;28;20448;-63
2022/06/27 08:23:27;;;;;;;25.07;23.03;;;19.40;30.20;;;;;;5058983;28;20443;-64
2022/06/27 08:25:54;;;;;;;23.10;21.20;;;19.60;1.00;;;;;;5058693;28;20501;-64
2022/06/27 08:28:26;;;;;;;25.53;23.27;;;19.90;1.00;;;;;;5058766;28;20502;-64
2022/06/27 08:31:00;;;;;;;25.83;23.43;;;20.00;1.00;;;;;;5058893;28;20445;-64
2022/06/27 08:33:30;;;;;;;27.00;24.60;;;19.90;1.00;;;;;;5058368;28;20470;-63
2022/06/27 08:36:02;;;;;;;26.07;23.70;;;19.80;1.00;;;;;;5059048;28;20466;-63
2022/06/27 08:38:42;;;;;;;26.47;24.07;;;19.80;1.00;;;;;;5059776;28;20481;-63
2022/06/27 08:41:11;;;;;;;25.63;23.33;;;19.70;1.00;;;;;;5059987;28;20472;-63
2022/06/27 08:43:41;;;;;;;28.27;25.67;;;19.20;1.00;;;;;;5059473;28;20533;-64
2022/06/27 08:46:12;;;;;;;28.00;25.33;;;18.90;1.00;;;;;;5058088;28;20527;-63
2022/06/27 08:48:42;;;;;;;28.47;25.87;;;18.90;1.00;;;;;;5057227;28;20762;-63
2022/06/27 08:51:10;;;;;;;28.17;25.67;;;18.80;1.00;;;;;;5057228;28;20470;-63
2022/06/27 08:53:41;;;;;;;27.57;24.90;;;18.70;1.00;;;;;;5059450;28;20505;-64
2022/06/27 08:56:14;;;;;;;28.37;25.77;;;18.70;1.00;;;;;;5058465;28;20751;-63
2022/06/27 08:58:47;;;;;;;26.50;24.07;;;18.70;1.00;;;;;;5058898;28;20462;-63
2022/06/27 09:01:17;;;;;;;26.23;23.87;;;18.90;42.10;;;;;;5064732;28;20501;-63
2022/06/27 09:04:06;;;;;;;25.23;22.90;;;18.80;1.00;;;;;;5047238;28;20553;-64
2022/06/27 09:06:56;;;;;;;29.57;26.87;;;18.40;2.60;;;;;;5062415;28;20808;-63
2022/06/27 09:09:29;;;;;;;28.20;25.70;;;18.60;99.90;;;;;;5066189;28;20489;-63
2022/06/27 09:12:09;;;;;;;26.33;23.87;;;18.70;86.20;;;;;;5061551;28;20454;-63
2022/06/27 09:14:39;;;;;;;26.67;23.97;;;18.80;35.00;;;;;;5059984;28;20457;-63
2022/06/27 09:17:12;;;;;;;26.87;24.13;;;18.90;1.00;;;;;;5066586;28;20549;-63
2022/06/27 09:19:57;;;;;;;25.20;22.70;;;18.70;1.00;;;;;;5068546;28;20524;-63
2022/06/27 09:22:28;;;;;;;24.60;22.30;;;18.60;1.00;;;;;;5058082;28;20796;-63
2022/06/27 09:25:09;;;;;;;26.43;23.80;;;18.40;1.00;;;;;;5057697;28;20915;-63
2022/06/27 09:27:42;;;;;;;25.07;22.60;;;18.30;11.00;;;;;;5049262;28;20458;-63
2022/06/27 09:30:26;;;;;;;25.57;23.00;;;18.20;99.90;;;;;;5059925;28;20494;-63
2022/06/27 09:32:57;;;;;;;24.77;22.27;;;18.10;79.60;;;;;;5041021;28;20721;-62
2022/06/27 09:35:30;;;;;;;27.17;24.00;;;18.10;99.90;;;;;;5059955;28;20454;-63
2022/06/27 09:38:00;;;;;;;26.40;23.07;;;18.20;99.90;;;;;;5063529;28;20552;-63
2022/06/27 09:40:33;;;;;;;25.57;22.43;;;18.30;99.90;;;;;;5066600;28;20481;-63
2022/06/27 09:43:03;;;;;;;25.60;23.23;;;18.30;99.90;;;;;;5063446;28;20901;-62
2022/06/27 09:45:38;;;;;;;24.87;22.27;;;18.50;99.90;;;;;;5057003;28;20540;-62
2022/06/27 09:48:08;;;;;;;25.83;23.07;;;18.70;35.40;;;;;;5055220;28;20489;-62
2022/06/27 09:50:44;;;;;;;25.33;22.77;;;18.80;1.00;;;;;;5056712;28;20906;-62
2022/06/27 09:53:11;;;;;;;24.07;21.57;;;18.90;1.00;;;;;;5056494;28;20440;-62
2022/06/27 09:55:45;;;;;;;26.50;23.63;;;19.00;1.00;;;;;;5056625;28;20781;-62
2022/06/27 09:58:16;;;;;;;24.93;22.57;;;19.00;1.00;;;;;;5057102;28;20466;-62
2022/06/27 10:00:47;;;;;;;25.13;22.87;;;19.30;1.00;;;;;;5057109;28;20804;-62
2022/06/27 10:03:17;;;;;;;25.57;23.13;;;19.50;1.00;;;;;;5052878;28;20620;-62
2022/06/27 10:05:49;;;;;;;25.40;22.87;;;19.60;1.00;;;;;;5057132;28;20622;-62
2022/06/27 10:08:16;;;;;;;23.93;21.73;;;19.50;1.00;;;;;;5054609;28;20437;-62
2022/06/27 10:11:09;;;;;;;26.47;23.77;;;19.70;1.00;;;;;;5055132;28;20487;-62
2022/06/27 10:13:42;;;;;;;24.53;22.23;;;20.00;1.00;;;;;;5056514;28;20466;-62
2022/06/27 10:16:12;;;;;;;25.27;22.77;;;20.00;1.00;;;;;;5056936;28;20805;-62
2022/06/27 10:19:03;;;;;;;26.30;23.57;;;20.30;1.00;;;;;;5056019;28;20494;-63
2022/06/27 10:21:33;;;;;;;23.27;21.07;;;21.10;1.00;;;;;;5056783;28;20466;-62
2022/06/27 10:24:36;;;;;;;21.63;19.83;;;21.90;1.00;;;;;;5057150;28;20828;-63
2022/06/27 10:27:21;;;;;;;26.10;23.80;;;22.40;99.90;;;;;;5055465;28;20772;-63
2022/06/27 10:29:49;;;;;;;25.13;22.83;;;22.90;99.90;;;;;;5055361;28;20990;-63
2022/06/27 10:32:43;;;;;;;22.63;20.40;;;22.80;99.90;;;;;;5059145;28;20472;-63
2022/06/27 10:35:24;;;;;;;27.87;25.67;;;22.50;99.90;;;;;;5056688;28;20545;-63
2022/06/27 10:37:53;;;;;;;26.43;24.27;;;22.20;99.90;;;;;;5056091;28;20541;-62
2022/06/27 10:40:54;;;;;;;23.93;22.03;;;22.30;99.90;;;;;;5057130;28;20821;-62
2022/06/27 10:43:45;;;;;;;24.73;22.70;;;21.90;99.90;;;;;;5057513;28;20465;-63
2022/06/27 10:46:54;;;;;;;26.63;24.47;;;21.30;99.90;;;;;;5055399;28;20896;-62
2022/06/27 10:49:27;;;;;;;25.13;23.03;;;21.50;99.90;;;;;;5053158;28;20512;-62
2022/06/27 10:52:27;;;;;;;28.90;26.20;;;21.20;99.90;;;;;;5056190;28;20489;-62
2022/06/27 10:54:56;;;;;;;29.63;27.03;;;21.20;99.90;;;;;;4995700;28;20748;-62
2022/06/27 10:57:46;;;;;;;29.80;27.40;;;21.10;99.90;;;;;;5045583;28;20563;-62
2022/06/27 11:00:44;;;;;;;29.60;27.00;;;21.00;99.90;;;;;;5056375;28;20503;-62
2022/06/27 11:03:28;;;;;;;32.67;29.57;;;21.00;99.90;;;;;;5057229;28;20461;-61
2022/06/27 11:06:02;;;;;;;29.50;26.90;;;20.90;99.90;;;;;;5058099;28;20545;-62
2022/06/27 11:08:32;;;;;;;30.83;28.00;;;20.70;99.90;;;;;;5058208;28;20512;-62
2022/06/27 11:11:04;;;;;;;29.17;26.40;;;20.70;99.90;;;;;;5056160;28;20502;-61
2022/06/27 11:13:47;;;;;;;29.13;26.60;;;20.70;99.90;;;;;;5057305;28;20560;-62
2022/06/27 11:16:18;;;;;;;34.87;31.77;;;20.60;99.90;;;;;;5056525;28;20560;-62
2022/06/27 11:18:50;;;;;;;35.90;32.70;;;20.50;99.90;;;;;;5056966;28;20536;-61
2022/06/27 11:21:23;;;;;;;38.13;34.60;;;20.30;99.90;;;;;;5052310;28;20997;-61
2022/06/27 11:23:52;;;;;;;35.97;32.57;;;20.40;99.90;;;;;;5057534;28;20550;-61
2022/06/27 11:26:23;;;;;;;35.57;32.27;;;20.60;99.90;;;;;;5057807;28;20462;-61
2022/06/27 11:34:24;;;;;;;29.90;27.00;;;20.70;99.90;;;;;;5055628;28;20452;-62
2022/06/27 11:36:52;;;;;;;32.00;29.10;;;20.20;99.90;;;;;;5047345;28;20467;-62
2022/06/27 11:39:25;;;;;;;29.63;26.87;;;20.20;99.90;;;;;;5047216;28;20517;-62
2022/06/27 11:42:03;;;;;;;31.80;28.90;;;20.10;99.90;;;;;;5050490;28;20467;-62
2022/06/27 11:44:31;;;;;;;30.73;28.13;;;20.40;99.90;;;;;;5044169;28;20461;-62
2022/06/27 11:47:07;;;;;;;33.90;30.80;;;20.40;99.90;;;;;;5054912;28;20718;-62
2022/06/27 11:49:40;;;;;;;36.53;33.20;;;20.30;99.90;;;;;;5056797;28;20477;-62
2022/06/27 11:52:14;;;;;;;38.40;35.10;;;20.30;99.90;;;;;;5059954;28;20447;-61
2022/06/27 11:54:44;;;;;;;40.33;36.73;;;20.30;99.90;;;;;;5061000;28;20800;-62
2022/06/27 11:57:45;;;;;;;42.93;39.20;;;20.40;99.90;;;;;;5061806;28;20464;-61
2022/06/27 12:00:25;;;;;;;42.10;38.30;;;20.40;99.90;;;;;;4997194;28;20794;-62
2022/06/27 12:02:54;;;;;;;40.67;36.83;;;20.50;99.90;;;;;;5052923;28;20468;-62
2022/06/27 12:05:25;;;;;;;40.23;36.70;;;20.50;99.90;;;;;;5060723;28;20464;-62
2022/06/27 12:08:01;;;;;;;36.43;33.23;;;20.60;99.90;;;;;;5060034;28;20960;-62
2022/06/27 12:11:16;;;;;;;33.80;30.80;;;20.70;99.90;;;;;;5059878;28;20468;-62
2022/06/27 12:13:36;;;;;;;37.60;34.37;;;20.80;99.90;;;;;;5059521;28;20431;-62
2022/06/27 12:16:12;;;;;;;37.87;34.47;;;20.90;99.90;;;;;;5059710;28;20465;-62
2022/06/27 12:18:42;;;;;;;36.13;32.90;;;20.80;99.90;;;;;;5059492;28;20587;-62
2022/06/27 12:21:13;;;;;;;34.93;31.77;;;21.30;99.90;;;;;;5060967;28;20458;-61
2022/06/27 12:23:44;;;;;;;36.60;33.40;;;21.70;99.90;;;;;;5060142;28;20490;-62
2022/06/27 12:26:11;;;;;;;34.27;31.20;;;22.00;99.90;;;;;;5060767;28;20436;-62
2022/06/27 12:28:42;;;;;;;36.83;33.73;;;22.10;99.90;;;;;;5056661;28;20576;-62
2022/06/27 12:31:10;;;;;;;34.70;31.70;;;22.20;99.90;;;;;;5059638;28;20513;-62
2022/06/27 12:33:37;;;;;;;35.57;32.57;;;22.40;99.90;;;;;;5059913;28;20985;-61
2022/06/27 12:36:08;;;;;;;35.63;32.60;;;22.30;99.90;;;;;;5058793;28;20801;-62
2022/06/27 12:38:37;;;;;;;36.57;33.07;;;22.60;99.90;;;;;;5060282;28;20473;-62
2022/06/27 12:41:15;;;;;;;37.13;33.90;;;23.10;99.90;;;;;;5060533;28;20527;-62
2022/06/27 12:43:48;;;;;;;38.27;35.00;;;23.30;99.90;;;;;;5061408;28;20735;-62
2022/06/27 12:46:21;;;;;;;37.17;34.17;;;23.40;99.90;;;;;;5059756;28;20466;-62
2022/06/27 12:48:56;;;;;;;37.33;33.93;;;23.90;99.90;;;;;;5063627;28;20478;-62
2022/06/27 12:51:25;;;;;;;33.00;30.37;;;24.00;99.90;;;;;;5065923;28;20493;-62
2022/06/27 12:53:54;;;;;;;31.93;29.23;;;23.70;99.90;;;;;;5068233;28;20983;-62
2022/06/27 12:56:27;;;;;;;29.00;26.33;;;23.60;99.90;;;;;;5067551;28;20914;-62
2022/06/27 12:58:56;;;;;;;29.30;26.67;;;23.20;99.90;;;;;;5067738;28;20965;-62
2022/06/27 13:01:25;;;;;;;31.13;28.60;;;23.00;99.90;;;;;;5068694;28;20484;-62
2022/06/27 13:03:52;;;;;;;30.33;27.93;;;23.00;99.90;;;;;;5068904;28;20975;-62
2022/06/27 13:06:22;;;;;;;27.47;25.17;;;22.70;99.90;;;;;;5064048;28;20515;-62